Archiv-/Tagesdaten

--Timestamp---	Temp	Chill	HIndex	Humid	Dewpt	 Wind 	HiWind	WindDir	Rain 	Barom	Solar	 ET  	 UV 
--------------	----	-----	------	-----	-----	------	------	-------	-----	-----	-----	-----	----
20100824 00:00	20.1	20.1	20.1	82	16.9	0	2	180	0.0	1006.8	0	0.025	0.0
20100824 00:05	20.1	20.1	20.1	82	16.9	0	2	180	0.0	1006.6	0	0.000	0.0
20100824 00:10	20.1	20.1	20.1	83	17.1	0	0	-100000	0.0	1006.7	0	0.000	0.0
20100824 00:15	20.1	20.1	20.1	84	17.3	0	2	180	0.0	1006.7	0	0.000	0.0
20100824 00:20	20.1	20.1	20.1	85	17.5	0	2	180	0.0	1006.6	0	0.000	0.0
20100824 00:25	20.0	20.0	20.0	85	17.4	0	2	180	0.0	1006.6	0	0.000	0.0
20100824 00:30	19.9	19.9	19.9	85	17.3	0	2	180	0.0	1006.5	0	0.000	0.0
20100824 00:35	19.9	19.9	19.9	86	17.5	2	5	180	0.0	1006.5	0	0.000	0.0
20100824 00:40	19.9	19.9	19.9	86	17.5	3	6	180	0.0	1006.4	0	0.000	0.0
20100824 00:45	19.8	19.8	19.8	86	17.4	2	5	180	0.0	1006.4	0	0.000	0.0
20100824 00:50	19.8	19.8	19.8	85	17.2	2	5	180	0.0	1006.4	0	0.000	0.0
20100824 00:55	19.8	19.8	19.8	86	17.4	0	5	180	0.0	1006.3	0	0.000	0.0
20100824 01:00	19.8	19.8	19.8	85	17.2	2	5	180	0.0	1006.3	0	0.025	0.0
20100824 01:05	19.7	19.7	19.7	85	17.1	5	8	180	0.0	1006.5	0	0.000	0.0
20100824 01:10	19.8	19.8	19.8	85	17.2	6	10	180	0.0	1006.5	0	0.000	0.0
20100824 01:15	19.8	19.8	19.8	85	17.2	5	10	180	0.0	1006.4	0	0.000	0.0
20100824 01:20	19.8	19.8	19.8	85	17.2	5	10	180	0.0	1006.6	0	0.000	0.0
20100824 01:25	19.8	19.8	19.8	85	17.2	3	8	180	0.0	1006.9	0	0.000	0.0
20100824 01:30	19.7	19.7	19.7	85	17.1	5	10	180	0.0	1007.0	0	0.000	0.0
20100824 01:35	19.6	19.6	19.6	85	17.0	5	8	225	0.0	1006.9	0	0.000	0.0
20100824 01:40	19.6	19.6	19.6	85	17.0	3	6	225	0.0	1006.8	0	0.000	0.0
20100824 01:45	19.6	19.6	19.6	85	17.0	5	8	225	0.2	1007.0	0	0.000	0.0
20100824 01:50	19.7	19.7	19.7	85	17.1	5	11	248	0.0	1006.9	0	0.000	0.0
20100824 01:55	19.7	19.7	19.7	84	16.9	6	14	248	0.0	1006.8	0	0.000	0.0
20100824 02:00	19.8	19.8	19.8	83	16.8	6	11	248	0.0	1006.8	0	0.025	0.0
20100824 02:05	19.8	19.8	19.8	82	16.7	5	11	248	0.0	1006.9	0	0.000	0.0
20100824 02:10	19.9	19.9	19.9	82	16.7	3	8	248	0.2	1006.9	0	0.000	0.0
20100824 02:15	19.9	19.9	19.9	83	16.9	3	6	248	0.0	1007.0	0	0.000	0.0
20100824 02:20	19.8	19.8	19.8	84	17.0	2	5	248	0.0	1007.0	0	0.000	0.0
20100824 02:25	19.7	19.7	19.7	84	16.9	2	8	248	0.0	1006.8	0	0.000	0.0
20100824 02:30	19.7	19.7	19.7	85	17.1	0	2	248	0.0	1006.7	0	0.000	0.0
20100824 02:35	19.6	19.6	19.6	85	17.0	0	5	248	0.0	1006.8	0	0.000	0.0
20100824 02:40	19.5	19.5	19.5	85	16.9	0	2	248	0.0	1006.8	0	0.000	0.0
20100824 02:45	19.4	19.4	19.4	85	16.9	3	10	248	0.0	1006.9	0	0.000	0.0
20100824 02:50	19.3	19.3	19.3	85	16.7	5	8	270	0.0	1006.9	0	0.000	0.0
20100824 02:55	19.3	19.3	19.3	85	16.7	3	6	270	0.0	1006.9	0	0.000	0.0
20100824 03:00	19.2	19.2	19.2	85	16.6	0	3	270	0.0	1006.8	0	0.025	0.0
20100824 03:05	19.2	19.2	19.2	85	16.6	0	2	270	0.0	1006.8	0	0.000	0.0
20100824 03:10	19.2	19.2	19.2	85	16.6	2	6	270	0.0	1007.0	0	0.000	0.0
20100824 03:15	19.2	19.2	19.2	85	16.6	2	5	270	0.0	1007.0	0	0.000	0.0
20100824 03:20	19.1	19.1	19.1	85	16.5	6	14	270	0.0	1007.1	0	0.000	0.0
20100824 03:25	19.1	19.1	19.1	85	16.5	8	16	315	0.0	1007.1	0	0.000	0.0
20100824 03:30	19.0	19.0	19.0	86	16.6	6	11	315	0.2	1007.3	0	0.000	0.0
20100824 03:35	18.9	18.9	18.9	85	16.4	16	34	315	0.0	1008.0	0	0.000	0.0
20100824 03:40	18.8	18.8	18.8	85	16.2	10	23	292	0.0	1008.1	0	0.000	0.0
20100824 03:45	18.6	18.6	18.6	85	16.0	8	18	292	0.4	1007.8	0	0.000	0.0
20100824 03:50	18.3	18.3	18.3	86	15.9	6	14	292	0.4	1008.1	0	0.000	0.0
20100824 03:55	18.0	18.0	18.0	86	15.6	8	14	270	0.4	1008.3	0	0.000	0.0
20100824 04:00	17.8	17.8	17.8	86	15.4	5	10	270	0.4	1008.3	0	0.025	0.0
20100824 04:05	17.5	17.5	17.5	87	15.3	3	6	270	0.6	1008.4	0	0.000	0.0
20100824 04:10	17.3	17.3	17.3	88	15.3	2	5	270	0.2	1008.4	0	0.000	0.0
20100824 04:15	17.3	17.3	17.3	89	15.4	3	8	270	0.2	1008.5	0	0.000	0.0
20100824 04:20	17.2	17.2	17.2	89	15.3	3	6	270	0.4	1008.5	0	0.000	0.0
20100824 04:25	17.1	17.1	17.1	89	15.2	2	5	270	0.0	1008.5	0	0.000	0.0
20100824 04:30	17.0	17.0	17.0	90	15.3	3	5	270	0.2	1008.6	0	0.000	0.0
20100824 04:35	17.0	17.0	17.0	90	15.3	5	10	270	0.2	1008.5	0	0.000	0.0
20100824 04:40	16.9	16.9	16.9	90	15.3	6	10	202	0.2	1008.6	0	0.000	0.0
20100824 04:45	16.9	16.9	16.9	90	15.3	6	11	202	0.4	1008.6	0	0.000	0.0
20100824 04:50	16.9	16.9	16.9	91	15.5	5	10	202	0.4	1008.5	0	0.000	0.0
20100824 04:55	16.9	16.9	16.9	91	15.5	5	10	202	0.4	1008.4	0	0.000	0.0
20100824 05:00	16.9	16.9	16.9	91	15.5	3	8	202	0.4	1008.4	0	0.025	0.0
20100824 05:05	17.0	17.0	17.0	92	15.7	5	10	180	0.4	1008.5	0	0.000	0.0
20100824 05:10	17.0	17.0	17.0	92	15.7	5	10	180	0.4	1008.5	0	0.000	0.0
20100824 05:15	17.1	17.1	17.1	92	15.7	5	11	180	0.2	1008.4	0	0.000	0.0
20100824 05:20	17.1	17.1	17.1	92	15.7	6	13	180	0.2	1008.3	0	0.000	0.0
20100824 05:25	17.1	17.1	17.1	92	15.7	6	16	180	0.2	1008.3	0	0.000	0.0
20100824 05:30	17.1	17.1	17.1	92	15.8	5	11	180	0.2	1008.2	0	0.000	0.0
20100824 05:35	17.2	17.2	17.2	92	15.9	6	18	180	0.4	1008.2	0	0.000	0.0
20100824 05:40	17.2	17.2	17.2	92	15.9	8	16	180	0.2	1008.3	0	0.000	0.0
20100824 05:45	17.2	17.2	17.2	92	15.9	8	18	180	0.2	1008.2	0	0.000	0.0
20100824 05:50	17.2	17.2	17.2	93	16.0	8	19	180	0.0	1008.2	0	0.000	0.0
20100824 05:55	17.1	17.1	17.1	92	15.8	8	21	202	0.0	1008.2	0	0.000	0.0
20100824 06:00	17.1	17.1	17.1	92	15.7	8	19	180	0.0	1008.2	0	0.000	0.0
20100824 06:05	17.1	17.1	17.1	92	15.7	6	14	180	0.0	1008.2	0	0.000	0.0
20100824 06:10	17.1	17.1	17.1	92	15.7	8	18	202	0.0	1008.2	0	0.000	0.0
20100824 06:15	17.1	17.1	17.1	93	15.9	8	18	180	0.0	1008.3	0	0.000	0.0
20100824 06:20	17.0	17.0	17.0	93	15.9	6	14	202	0.0	1008.2	0	0.000	0.0
20100824 06:25	17.1	17.1	17.1	93	15.9	8	18	202	0.0	1008.3	0	0.000	0.0
20100824 06:30	17.1	17.1	17.1	93	15.9	6	16	202	0.0	1008.2	0	0.000	0.0
20100824 06:35	17.1	17.1	17.1	93	15.9	6	13	202	0.0	1008.3	0	0.000	0.0
20100824 06:40	17.1	17.1	17.1	93	15.9	6	14	180	0.0	1008.2	1	0.000	0.0
20100824 06:45	17.1	17.1	17.1	92	15.7	6	14	180	0.0	1008.2	7	0.000	0.0
20100824 06:50	17.0	17.0	17.0	93	15.9	6	10	202	0.0	1008.2	9	0.000	0.0
20100824 06:55	17.0	17.0	17.0	93	15.9	5	11	180	0.0	1008.4	9	0.000	0.0
20100824 07:00	17.1	17.1	17.1	93	15.9	3	8	202	0.0	1008.3	12	0.000	0.0
20100824 07:05	17.1	17.1	17.1	93	15.9	6	11	202	0.0	1008.4	14	0.000	0.0
20100824 07:10	17.1	17.1	17.1	92	15.7	5	10	202	0.0	1008.4	21	0.000	0.0
20100824 07:15	17.1	17.1	17.1	92	15.8	6	16	225	0.0	1008.4	29	0.000	0.0
20100824 07:20	17.2	17.2	17.2	92	15.9	6	16	202	0.0	1008.4	44	0.000	0.0
20100824 07:25	17.3	17.3	17.3	92	16.0	6	11	202	0.0	1008.4	39	0.000	0.0
20100824 07:30	17.3	17.3	17.3	93	16.1	5	10	202	0.0	1008.4	39	0.000	0.0
20100824 07:35	17.3	17.3	17.3	93	16.2	8	16	202	0.0	1008.4	33	0.000	0.0
20100824 07:40	17.4	17.4	17.4	92	16.1	6	14	202	0.0	1008.5	40	0.000	0.0
20100824 07:45	17.4	17.4	17.4	92	16.1	8	16	202	0.0	1008.5	47	0.000	0.0
20100824 07:50	17.5	17.5	17.5	92	16.2	6	11	202	0.0	1008.5	62	0.000	0.0
20100824 07:55	17.6	17.6	17.6	92	16.2	6	14	202	0.0	1008.5	73	0.000	0.0
20100824 08:00	17.6	17.6	17.6	92	16.3	5	11	225	0.0	1008.6	65	0.025	0.0
20100824 08:05	17.7	17.7	17.7	92	16.3	6	16	225	0.0	1008.7	55	0.000	0.0
20100824 08:10	17.7	17.7	17.7	92	16.4	5	8	202	0.0	1008.7	53	0.000	0.0
20100824 08:15	17.7	17.7	17.7	92	16.4	5	10	202	0.0	1008.7	61	0.000	0.2
20100824 08:20	17.8	17.8	17.8	92	16.5	6	11	202	0.0	1008.8	100	0.000	0.6
20100824 08:25	17.9	17.9	17.9	92	16.6	6	14	202	0.0	1008.9	128	0.000	0.6
20100824 08:30	18.1	18.1	18.1	92	16.7	8	18	202	0.0	1008.8	125	0.000	0.6
20100824 08:35	18.2	18.2	18.2	91	16.7	6	14	225	0.0	1008.8	95	0.000	0.6
20100824 08:40	18.2	18.2	18.2	90	16.6	8	18	225	0.0	1008.7	62	0.000	0.2
20100824 08:45	18.2	18.2	18.2	89	16.4	10	19	248	0.0	1008.8	58	0.000	0.0
20100824 08:50	18.2	18.2	18.2	88	16.2	13	19	225	0.0	1008.7	80	0.000	0.3
20100824 08:55	18.3	18.3	18.3	88	16.3	10	16	225	0.0	1008.7	76	0.000	0.5
20100824 09:00	18.4	18.4	18.4	87	16.2	8	13	225	0.0	1008.7	93	0.051	0.7
20100824 09:05	18.4	18.4	18.4	87	16.2	8	18	248	0.0	1008.7	119	0.000	0.9
20100824 09:10	18.6	18.6	18.6	86	16.2	10	16	248	0.0	1008.8	90	0.000	0.7
20100824 09:15	18.6	18.6	18.6	86	16.2	6	16	248	0.0	1008.7	80	0.000	0.8
20100824 09:20	18.7	18.7	18.7	86	16.3	10	16	248	0.0	1008.8	121	0.000	1.1
20100824 09:25	18.8	18.8	18.8	85	16.3	10	19	270	0.0	1008.8	196	0.000	1.3
20100824 09:30	18.9	18.9	18.9	84	16.2	10	19	225	0.0	1008.8	152	0.000	1.1
20100824 09:35	19.1	19.1	19.1	84	16.3	10	16	248	0.0	1008.8	139	0.000	1.1
20100824 09:40	19.1	19.1	19.1	83	16.2	10	18	248	0.0	1008.8	107	0.000	0.9
20100824 09:45	19.1	19.1	19.1	83	16.2	8	19	225	0.0	1008.8	113	0.000	1.0
20100824 09:50	19.2	19.2	19.2	82	16.0	11	19	248	0.0	1008.8	152	0.000	1.4
20100824 09:55	19.3	19.3	19.3	83	16.3	6	14	248	0.0	1008.8	153	0.000	1.5
20100824 10:00	19.4	19.4	19.4	83	16.4	8	16	248	0.0	1008.9	147	0.102	1.5
20100824 10:05	19.4	19.4	19.4	82	16.3	8	16	248	0.0	1008.9	140	0.000	1.4
20100824 10:10	19.5	19.5	19.5	82	16.3	8	14	225	0.0	1008.8	191	0.000	2.1
20100824 10:15	19.7	19.7	19.7	81	16.3	10	19	270	0.0	1008.9	128	0.000	2.4
20100824 10:20	19.9	19.9	19.9	79	16.1	11	19	248	0.0	1008.7	154	0.000	2.6
20100824 10:25	20.2	20.2	20.2	79	16.4	8	18	248	0.0	1008.8	77	0.000	2.5
20100824 10:30	20.4	20.4	20.4	78	16.4	11	24	248	0.0	1008.8	69	0.000	2.5
20100824 10:35	20.7	20.7	20.7	77	16.5	10	18	270	0.0	1008.8	69	0.000	2.6
20100824 10:40	21.1	21.1	21.1	76	16.7	11	21	270	0.0	1008.8	82	0.000	2.6
20100824 10:45	21.2	21.2	21.2	75	16.6	13	21	270	0.0	1008.7	680	0.000	3.6
20100824 10:50	21.4	21.4	21.4	75	16.8	13	19	270	0.0	1008.7	649	0.000	4.7
20100824 10:55	21.6	21.6	21.6	73	16.6	11	21	270	0.0	1008.7	647	0.000	4.8
20100824 11:00	21.8	21.8	21.8	73	16.8	11	19	270	0.0	1008.7	651	0.203	5.0
20100824 11:05	22.0	22.0	22.0	72	16.7	11	19	248	0.0	1008.5	674	0.000	5.1
20100824 11:10	22.3	22.3	22.3	69	16.3	11	23	270	0.0	1008.6	653	0.000	5.2
20100824 11:15	22.4	22.4	22.4	70	16.7	13	23	270	0.0	1008.7	685	0.000	5.3
20100824 11:20	22.6	22.6	22.6	69	16.6	11	21	248	0.0	1008.6	427	0.000	4.2
20100824 11:25	22.6	22.6	22.6	70	16.8	11	19	248	0.0	1008.6	489	0.000	4.7
20100824 11:30	22.6	22.6	22.6	70	16.9	10	19	270	0.0	1008.7	513	0.000	4.9
20100824 11:35	22.8	22.8	22.8	70	17.0	11	23	248	0.0	1008.7	664	0.000	5.6
20100824 11:40	22.9	22.9	22.9	68	16.7	11	21	270	0.0	1008.6	739	0.000	5.5
20100824 11:45	23.1	23.1	23.1	69	17.1	13	24	270	0.0	1008.6	605	0.000	5.2
20100824 11:50	23.2	23.2	23.2	69	17.2	10	16	248	0.0	1008.6	599	0.000	5.6
20100824 11:55	23.4	23.4	23.4	67	17.0	11	21	270	0.0	1008.6	659	0.000	6.0
20100824 12:00	23.7	23.7	23.7	66	16.9	11	19	270	0.0	1008.5	607	0.406	5.8
20100824 12:05	23.8	23.8	23.8	66	17.0	10	19	270	0.0	1008.6	543	0.000	5.9
20100824 12:10	23.9	23.9	25.0	65	16.9	11	18	270	0.0	1008.5	558	0.000	4.4
20100824 12:15	23.9	23.9	25.0	66	17.1	11	21	248	0.0	1008.5	461	0.000	4.7
20100824 12:20	24.0	24.0	25.2	64	16.8	14	24	270	0.0	1008.5	294	0.000	4.4
20100824 12:25	23.8	23.8	23.8	63	16.4	13	21	270	0.0	1008.4	200	0.000	2.1
20100824 12:30	23.6	23.6	23.6	64	16.3	14	21	270	0.0	1008.4	159	0.000	1.8
20100824 12:35	23.3	23.3	23.3	68	17.0	10	21	270	0.0	1008.5	125	0.000	1.4
20100824 12:40	22.6	22.6	22.6	71	17.0	13	24	270	0.2	1008.6	200	0.000	2.1
20100824 12:45	22.0	22.0	22.0	75	17.4	10	18	270	0.0	1008.5	160	0.000	2.2
20100824 12:50	21.7	21.7	21.7	77	17.5	6	14	270	0.0	1008.5	137	0.000	2.6
20100824 12:55	21.6	21.6	21.6	76	17.1	6	11	270	0.0	1008.5	166	0.000	3.2
20100824 13:00	21.6	21.6	21.6	78	17.6	6	11	270	0.0	1008.5	221	0.229	4.8
20100824 13:05	22.1	22.1	22.1	77	17.8	8	16	270	0.0	1008.4	769	0.000	7.2
20100824 13:10	22.7	22.7	22.7	73	17.6	11	18	270	0.0	1008.3	849	0.000	7.4
20100824 13:15	23.3	23.3	23.3	68	17.1	13	26	270	0.0	1008.2	930	0.000	7.0
20100824 13:20	23.7	23.7	23.7	67	17.2	13	19	270	0.0	1008.1	609	0.000	5.4
20100824 13:25	23.7	23.7	23.7	68	17.4	10	16	270	0.0	1008.1	168	0.000	2.8
20100824 13:30	23.5	23.5	23.5	69	17.5	10	19	248	0.0	1008.0	195	0.000	4.4
20100824 13:35	23.8	23.8	23.8	69	17.8	10	18	248	0.0	1007.9	970	0.000	6.3
20100824 13:40	24.2	24.2	25.3	66	17.5	13	23	248	0.0	1007.7	289	0.000	4.1
20100824 13:45	24.2	24.2	25.2	67	17.6	10	21	248	0.0	1007.7	245	0.000	4.1
20100824 13:50	24.3	24.3	25.3	66	17.5	11	19	270	0.0	1007.6	299	0.000	6.4
20100824 13:55	24.4	24.4	25.5	66	17.7	11	23	248	0.0	1007.6	241	0.000	4.8
20100824 14:00	24.7	24.7	25.7	64	17.4	13	27	270	0.0	1007.6	392	0.381	4.7
20100824 14:05	24.5	24.5	25.6	63	17.0	11	29	292	0.0	1007.7	102	0.000	1.7
20100824 14:10	24.4	24.4	25.4	65	17.4	13	23	248	0.0	1007.8	541	0.000	5.5
20100824 14:15	24.7	24.7	25.7	63	17.2	11	23	270	0.0	1007.7	571	0.000	5.9
20100824 14:20	25.1	25.1	26.1	63	17.6	11	24	270	0.0	1007.6	788	0.000	6.5
20100824 14:25	25.2	25.2	26.1	61	17.1	18	31	270	0.0	1007.7	159	0.000	2.4
20100824 14:30	24.8	24.8	25.9	61	16.8	14	26	270	0.0	1007.9	152	0.000	2.6
20100824 14:35	24.7	24.7	25.7	60	16.4	18	29	292	0.0	1007.8	190	0.000	4.3
20100824 14:40	24.6	24.6	25.6	62	16.8	19	32	270	0.0	1007.8	217	0.000	3.3
20100824 14:45	24.4	24.4	25.5	61	16.4	18	34	270	0.0	1007.8	141	0.000	2.9
20100824 14:50	24.3	24.3	25.4	61	16.3	18	31	270	0.0	1007.8	129	0.000	4.3
20100824 14:55	24.7	24.7	25.7	61	16.6	21	37	270	0.0	1007.9	624	0.000	5.5
20100824 15:00	25.2	25.2	26.1	61	17.1	19	34	270	0.0	1007.8	890	0.330	5.0
20100824 15:05	25.4	25.4	26.3	58	16.5	21	32	270	0.0	1007.9	330	0.000	2.7
20100824 15:10	25.3	25.3	26.2	59	16.7	19	35	292	0.0	1007.9	413	0.000	3.9
20100824 15:15	25.1	25.1	26.0	59	16.5	19	32	292	0.0	1008.0	177	0.000	2.8
20100824 15:20	24.8	24.8	25.9	59	16.3	21	37	270	0.0	1008.0	310	0.000	3.3
20100824 15:25	24.8	24.8	25.8	61	16.7	18	32	292	0.0	1008.0	213	0.000	2.9
20100824 15:30	24.7	24.7	25.8	61	16.7	19	34	292	0.0	1008.0	253	0.000	2.9
20100824 15:35	24.7	24.7	25.8	61	16.7	21	37	292	0.0	1008.0	174	0.000	2.5
20100824 15:40	24.5	24.5	25.6	62	16.7	19	32	292	0.0	1008.1	202	0.000	2.0
20100824 15:45	24.7	24.7	25.8	62	16.9	19	31	292	0.0	1008.0	696	0.000	3.8
20100824 15:50	24.9	24.9	25.9	60	16.6	18	29	292	0.0	1007.9	231	0.000	3.1
20100824 15:55	24.4	24.4	25.5	61	16.4	23	34	315	0.0	1008.2	147	0.000	2.1
20100824 16:00	23.6	23.6	23.6	64	16.4	16	29	315	0.0	1008.3	485	0.330	3.7
20100824 16:05	23.4	23.4	23.4	66	16.7	13	27	315	0.0	1008.4	600	0.000	3.8
20100824 16:10	23.5	23.5	23.5	66	16.8	8	21	315	0.0	1008.4	520	0.000	3.3
20100824 16:15	23.7	23.7	23.7	66	16.9	3	16	315	0.0	1008.3	494	0.000	3.2
20100824 16:20	23.8	23.8	23.8	66	17.0	10	19	292	0.0	1008.4	533	0.000	3.2
20100824 16:25	23.9	23.9	25.0	65	16.9	10	23	338	0.0	1008.6	385	0.000	2.7
20100824 16:30	23.7	23.7	23.7	65	16.7	10	24	315	0.0	1008.6	226	0.000	2.0
20100824 16:35	23.3	23.3	23.3	66	16.6	6	14	292	0.0	1008.7	177	0.000	1.6
20100824 16:40	23.1	23.1	23.1	68	16.8	3	8	315	0.0	1008.8	138	0.000	1.2
20100824 16:45	22.8	22.8	22.8	67	16.4	10	19	315	0.0	1008.8	95	0.000	0.7
20100824 16:50	22.5	22.5	22.5	67	16.1	11	19	315	0.0	1008.9	88	0.000	0.7
20100824 16:55	22.2	22.2	22.2	68	16.0	11	23	315	0.0	1009.0	118	0.000	0.8
20100824 17:00	22.1	22.1	22.1	69	16.1	6	16	315	0.0	1009.0	90	0.229	0.6
20100824 17:05	21.8	21.8	21.8	70	16.1	19	55	315	0.4	1010.4	16	0.000	0.0
20100824 17:10	20.1	20.1	20.1	79	16.3	24	56	270	3.4	1010.5	9	0.000	0.0
20100824 17:15	18.7	18.7	18.7	83	15.8	18	29	270	0.2	1011.0	30	0.000	0.0
20100824 17:20	18.1	18.1	18.1	86	15.7	16	24	292	0.2	1010.8	58	0.000	0.1
20100824 17:25	17.7	17.7	17.7	88	15.7	14	23	292	0.2	1010.7	83	0.000	0.5
20100824 17:30	17.7	17.7	17.7	89	15.8	10	23	315	0.0	1010.6	95	0.000	0.6
20100824 17:35	17.7	17.7	17.7	90	16.1	11	19	292	0.0	1010.7	150	0.000	0.8
20100824 17:40	17.9	17.9	17.9	90	16.2	8	18	292	0.0	1010.6	179	0.000	0.9
20100824 17:45	18.1	18.1	18.1	90	16.4	8	16	292	0.0	1010.8	136	0.000	0.9
20100824 17:50	18.1	18.1	18.1	90	16.4	6	10	292	0.0	1010.6	144	0.000	0.8
20100824 17:55	18.2	18.2	18.2	90	16.5	5	10	292	0.0	1010.7	164	0.000	0.8
20100824 18:00	18.3	18.3	18.3	90	16.6	6	10	270	0.0	1010.9	146	0.076	0.8
20100824 18:05	18.3	18.3	18.3	90	16.6	6	14	292	0.0	1010.8	120	0.000	0.7
20100824 18:10	18.3	18.3	18.3	90	16.7	6	14	292	0.0	1010.6	96	0.000	0.6
20100824 18:15	18.3	18.3	18.3	90	16.6	6	13	292	0.0	1010.8	85	0.000	0.5
20100824 18:20	18.3	18.3	18.3	90	16.6	8	16	292	0.0	1011.0	76	0.000	0.4
20100824 18:25	18.3	18.3	18.3	90	16.6	6	10	292	0.0	1011.0	72	0.000	0.1
20100824 18:30	18.3	18.3	18.3	90	16.7	5	10	292	0.0	1011.2	58	0.000	0.0
20100824 18:35	18.4	18.4	18.4	90	16.7	10	18	270	0.0	1011.1	74	0.000	0.0
20100824 18:40	18.4	18.4	18.4	90	16.8	6	14	292	0.0	1011.4	71	0.000	0.0
20100824 18:45	18.4	18.4	18.4	90	16.8	13	21	270	0.0	1011.4	53	0.000	0.0
20100824 18:50	18.4	18.4	18.4	90	16.7	14	24	292	0.0	1011.4	13	0.000	0.0
20100824 18:55	18.1	18.1	18.1	88	16.1	19	32	315	0.0	1011.7	17	0.000	0.0
20100824 19:00	17.9	17.9	17.9	88	15.9	16	32	315	0.0	1011.8	50	0.051	0.0
20100824 19:05	17.8	17.8	17.8	89	15.9	16	26	315	0.0	1011.9	43	0.000	0.0
20100824 19:10	17.7	17.7	17.7	88	15.7	13	29	315	0.0	1012.1	34	0.000	0.0
20100824 19:15	17.6	17.6	17.6	88	15.5	13	23	315	0.0	1012.1	75	0.000	0.0
20100824 19:20	17.5	17.5	17.5	88	15.5	10	26	315	0.0	1012.3	59	0.000	0.0
20100824 19:25	17.5	17.5	17.5	89	15.7	11	18	292	0.0	1012.5	30	0.000	0.0
20100824 19:30	17.3	17.3	17.3	86	15.0	18	31	315	0.0	1012.7	19	0.000	0.0
20100824 19:35	17.3	17.3	17.3	86	14.9	13	23	292	0.0	1012.9	27	0.000	0.0
20100824 19:40	17.3	17.3	17.3	85	14.7	13	21	292	0.0	1013.0	29	0.000	0.0
20100824 19:45	17.2	17.2	17.2	86	14.9	10	23	292	0.0	1013.2	16	0.000	0.0
20100824 19:50	17.2	17.2	17.2	86	14.9	10	24	292	0.0	1013.3	19	0.000	0.0
20100824 19:55	17.1	17.1	17.1	83	14.1	21	34	292	0.0	1013.3	14	0.000	0.0
20100824 20:00	16.9	16.9	16.9	81	13.6	18	39	292	0.0	1013.3	7	0.051	0.0
20100824 20:05	16.7	16.7	16.7	81	13.4	16	27	292	0.0	1013.5	3	0.000	0.0
20100824 20:10	16.6	16.6	16.6	82	13.5	14	24	292	0.0	1013.6	1	0.000	0.0
20100824 20:15	16.5	16.5	16.5	82	13.4	13	26	270	0.0	1013.7	0	0.000	0.0
20100824 20:20	16.4	16.4	16.4	83	13.5	10	23	292	0.0	1013.7	0	0.000	0.0
20100824 20:25	16.3	16.3	16.3	82	13.3	14	24	292	0.0	1013.8	0	0.000	0.0
20100824 20:30	16.3	16.3	16.3	83	13.4	11	19	292	0.0	1013.9	0	0.000	0.0
20100824 20:35	16.2	16.2	16.2	83	13.3	8	16	292	0.0	1013.9	0	0.000	0.0
20100824 20:40	16.2	16.2	16.2	83	13.3	6	16	292	0.0	1013.9	0	0.000	0.0
20100824 20:45	16.0	16.0	16.0	83	13.1	8	16	292	0.0	1014.0	0	0.000	0.0
20100824 20:50	15.9	15.9	15.9	83	13.1	8	14	292	0.0	1014.2	0	0.000	0.0
20100824 20:55	15.8	15.8	15.8	84	13.1	6	11	270	0.0	1014.3	0	0.000	0.0
20100824 21:00	15.8	15.8	15.8	84	13.1	6	11	292	0.0	1014.6	0	0.025	0.0
20100824 21:05	15.8	15.8	15.8	84	13.1	8	14	292	0.0	1014.6	0	0.000	0.0
20100824 21:10	15.8	15.8	15.8	84	13.1	11	19	292	0.0	1014.7	0	0.000	0.0
20100824 21:15	15.8	15.8	15.8	84	13.1	10	18	292	0.0	1014.7	0	0.000	0.0
20100824 21:20	15.8	15.8	15.8	84	13.1	6	11	292	0.0	1014.7	0	0.000	0.0
20100824 21:25	15.8	15.8	15.8	84	13.1	6	14	292	0.0	1014.7	0	0.000	0.0
20100824 21:30	15.8	15.8	15.8	84	13.1	6	14	292	0.0	1014.8	0	0.000	0.0
20100824 21:35	15.8	15.8	15.8	84	13.1	5	8	292	0.0	1014.9	0	0.000	0.0
20100824 21:40	15.8	15.8	15.8	84	13.1	6	14	292	0.0	1015.2	0	0.000	0.0
20100824 21:45	15.8	15.8	15.8	84	13.1	3	8	292	0.0	1015.2	0	0.000	0.0
20100824 21:50	15.8	15.8	15.8	85	13.3	5	8	292	0.0	1015.2	0	0.000	0.0
20100824 21:55	15.8	15.8	15.8	85	13.3	8	16	270	0.0	1015.3	0	0.000	0.0
20100824 22:00	15.8	15.8	15.8	83	12.9	11	19	292	0.0	1015.4	0	0.025	0.0
20100824 22:05	15.8	15.8	15.8	82	12.7	11	21	270	0.0	1015.2	0	0.000	0.0
20100824 22:10	15.7	15.7	15.7	81	12.5	14	27	292	0.0	1015.2	0	0.000	0.0
20100824 22:15	15.7	15.7	15.7	81	12.4	14	21	292	0.0	1015.2	0	0.000	0.0
20100824 22:20	15.6	15.6	15.6	80	12.1	16	29	292	0.0	1015.3	0	0.000	0.0
20100824 22:25	15.5	15.5	15.5	79	11.9	16	26	292	0.0	1015.4	0	0.000	0.0
20100824 22:30	15.4	15.4	15.4	80	12.0	14	24	292	0.0	1015.5	0	0.000	0.0
20100824 22:35	15.3	15.3	15.3	80	11.9	11	23	292	0.0	1015.8	0	0.000	0.0
20100824 22:40	15.2	15.2	15.2	80	11.7	11	26	292	0.0	1015.9	0	0.000	0.0
20100824 22:45	15.0	15.0	15.0	80	11.6	13	21	292	0.0	1015.9	0	0.000	0.0
20100824 22:50	15.0	15.0	15.0	80	11.6	13	19	292	0.0	1016.0	0	0.000	0.0
20100824 22:55	14.9	14.9	14.9	81	11.7	13	21	292	0.0	1016.1	0	0.000	0.0
20100824 23:00	14.8	14.8	14.8	81	11.6	10	19	292	0.0	1016.2	0	0.051	0.0
20100824 23:05	14.7	14.7	14.7	81	11.5	8	18	292	0.0	1016.0	0	0.000	0.0
20100824 23:10	14.6	14.6	14.6	81	11.3	8	16	292	0.0	1016.2	0	0.000	0.0
20100824 23:15	14.4	14.4	14.4	82	11.4	10	16	292	0.0	1016.2	0	0.000	0.0
20100824 23:20	14.3	14.3	14.3	82	11.3	8	14	292	0.0	1016.4	0	0.000	0.0
20100824 23:25	14.3	14.3	14.3	82	11.2	6	14	270	0.0	1016.5	0	0.000	0.0
20100824 23:30	14.2	14.2	14.2	82	11.2	6	11	270	0.0	1016.6	0	0.000	0.0
20100824 23:35	14.2	14.2	14.2	82	11.1	6	14	270	0.0	1016.6	0	0.000	0.0
20100824 23:40	14.1	14.1	14.1	83	11.3	5	11	270	0.0	1016.6	0	0.000	0.0
20100824 23:45	14.1	14.1	14.1	83	11.2	5	11	270	0.0	1016.8	0	0.000	0.0
20100824 23:50	14.1	14.1	14.1	83	11.3	8	14	270	0.0	1016.8	0	0.000	0.0
20100824 23:55	14.1	14.1	14.1	83	11.3	6	14	270	0.0	1016.9	0	0.000	0.0
--------------------------------------------------------------------------------------------------------------------
Please note the license to use and transfer of this data:
http://creativecommons.org/licenses/by-nc-sa/3.0/deed.en

Bitte beachten sie die Lizenz zur Verwertung und Weitergabe der Daten:
http://creativecommons.org/licenses/by-nc-sa/3.0/deed.de



Please note the license to use and transfer of this data:
http://creativecommons.org/licenses/by-nc-sa/3.0/deed.en

Bitte beachten sie die Lizenz zur Verwertung und Weitergabe der Daten:
http://creativecommons.org/licenses/by-nc-sa/3.0/deed.de

zurück zur Übersicht der Archivdaten (Monats und Tagesdaten)

Cookies helfen bei der Bereitstellung von Inhalten. Durch die Nutzung dieser Seiten erklärst du dich damit einverstanden, dass Cookies auf deinem Rechner gespeichert werden. Weitere Information